createdAt,value
2017-12-31T00:00:53.826Z,9
2017-12-31T00:02:07.996Z,9
2017-12-31T00:03:22.444Z,9
2017-12-31T00:04:36.898Z,9
2017-12-31T00:05:51.074Z,9.1
2017-12-31T00:07:05.535Z,9
2017-12-31T00:08:19.986Z,9.1
2017-12-31T00:09:34.485Z,9.1
2017-12-31T00:10:48.651Z,9.1
2017-12-31T00:12:02.831Z,9.1
2017-12-31T00:13:17.272Z,9.1
2017-12-31T00:14:31.449Z,9.2
2017-12-31T00:15:45.938Z,9.2
2017-12-31T00:17:00.108Z,9.2
2017-12-31T00:18:14.554Z,9.3
2017-12-31T00:19:28.999Z,9.3
2017-12-31T00:20:43.451Z,9.3
2017-12-31T00:21:57.895Z,9.3
2017-12-31T00:23:13.024Z,9.3
2017-12-31T00:24:27.473Z,9.3
2017-12-31T00:25:41.920Z,9.4
2017-12-31T00:26:56.368Z,9.4
2017-12-31T00:28:11.039Z,9.3
2017-12-31T00:29:25.485Z,9.3
2017-12-31T00:30:39.668Z,9.3
2017-12-31T00:31:53.847Z,9.2
2017-12-31T00:33:08.023Z,9.2
2017-12-31T00:34:22.474Z,9.2
2017-12-31T00:35:36.920Z,9.2
2017-12-31T00:36:51.365Z,9.2
2017-12-31T00:38:05.536Z,9.2
2017-12-31T00:39:19.987Z,9.2
2017-12-31T00:40:34.433Z,9.2
2017-12-31T00:41:48.608Z,9.2
2017-12-31T00:43:03.057Z,9.2
2017-12-31T00:44:17.506Z,9.2
2017-12-31T00:45:31.958Z,9.1
2017-12-31T00:46:46.129Z,9.1
2017-12-31T00:48:00.297Z,9.1
2017-12-31T00:49:14.751Z,9
2017-12-31T00:50:29.194Z,9
2017-12-31T00:51:43.643Z,9
2017-12-31T00:52:58.094Z,9.1
2017-12-31T00:54:12.744Z,9
2017-12-31T00:55:27.192Z,9.1
2017-12-31T00:56:41.637Z,9.1
2017-12-31T00:57:56.086Z,9.1
2017-12-31T00:59:10.530Z,9.1
2017-12-31T01:00:24.981Z,9.1
2017-12-31T01:01:39.445Z,9.1
2017-12-31T01:02:53.894Z,9.1
2017-12-31T01:04:08.348Z,9.2
2017-12-31T01:05:22.792Z,9.1
2017-12-31T01:06:37.237Z,9.2
2017-12-31T01:07:51.410Z,9.2
2017-12-31T01:09:05.857Z,9.1
2017-12-31T01:10:20.303Z,9.1
2017-12-31T01:11:34.477Z,9.2
2017-12-31T01:12:48.670Z,9.1
2017-12-31T01:14:03.121Z,9.1
2017-12-31T01:15:17.573Z,9.1
2017-12-31T01:16:32.018Z,9.1
2017-12-31T01:17:46.466Z,9.1
2017-12-31T01:19:00.916Z,9.1
2017-12-31T01:20:15.095Z,9
2017-12-31T01:21:29.538Z,9
2017-12-31T01:22:43.989Z,9
2017-12-31T01:23:58.438Z,9.1
2017-12-31T01:25:12.886Z,9.2
2017-12-31T01:26:27.331Z,9.1
2017-12-31T01:27:41.777Z,9.1
2017-12-31T01:28:56.228Z,9.1
2017-12-31T01:30:10.673Z,9.1
2017-12-31T01:31:25.119Z,9.2
2017-12-31T01:32:39.570Z,9.2
2017-12-31T01:33:54.018Z,9.2
2017-12-31T01:35:08.472Z,9.2
2017-12-31T01:36:22.938Z,9.2
2017-12-31T01:37:37.109Z,9.1
2017-12-31T01:38:51.561Z,9.1
2017-12-31T01:40:06.009Z,9.1
2017-12-31T01:41:20.455Z,9.1
2017-12-31T01:42:35.857Z,9.1
2017-12-31T01:43:50.307Z,9
2017-12-31T01:45:04.753Z,9.1
2017-12-31T01:46:19.200Z,9.1
2017-12-31T01:47:33.649Z,9.1
2017-12-31T01:48:48.096Z,9.1
2017-12-31T01:50:02.547Z,9.1
2017-12-31T01:51:16.721Z,9.1
2017-12-31T01:52:31.172Z,9.1
2017-12-31T01:53:45.623Z,9.1
2017-12-31T01:55:00.107Z,9.1
2017-12-31T01:56:14.283Z,9.1
2017-12-31T01:57:28.747Z,9
2017-12-31T01:58:42.920Z,9.1
2017-12-31T01:59:57.090Z,9.1
2017-12-31T02:01:11.570Z,9
2017-12-31T02:02:26.049Z,9
2017-12-31T02:03:40.495Z,9
2017-12-31T02:04:54.668Z,9
2017-12-31T02:06:09.115Z,9
2017-12-31T02:07:23.562Z,9
2017-12-31T02:08:38.014Z,8.9
2017-12-31T02:09:52.460Z,8.9
2017-12-31T02:11:06.911Z,8.9
2017-12-31T02:12:21.391Z,8.9
2017-12-31T02:13:35.847Z,8.9
2017-12-31T02:14:50.020Z,8.9
2017-12-31T02:16:04.466Z,8.9
2017-12-31T02:17:18.911Z,8.9
2017-12-31T02:18:33.379Z,8.9
2017-12-31T02:19:47.826Z,8.9
2017-12-31T02:21:02.278Z,8.9
2017-12-31T02:22:16.715Z,8.9
2017-12-31T02:23:31.165Z,8.9
2017-12-31T02:24:45.336Z,8.9
2017-12-31T02:25:59.791Z,8.9
2017-12-31T02:27:13.963Z,8.9
2017-12-31T02:28:28.413Z,8.9
2017-12-31T02:29:42.587Z,8.9
2017-12-31T02:30:57.040Z,8.8
2017-12-31T02:32:11.482Z,8.8
2017-12-31T02:33:25.930Z,8.8
2017-12-31T02:34:40.097Z,8.8
2017-12-31T02:35:54.552Z,8.8
2017-12-31T02:37:09.001Z,8.8
2017-12-31T02:38:23.175Z,8.7
2017-12-31T02:39:37.626Z,8.7
2017-12-31T02:40:52.077Z,8.8
2017-12-31T02:42:06.527Z,8.8
2017-12-31T02:43:20.971Z,8.7
2017-12-31T02:44:35.460Z,8.7
2017-12-31T02:45:49.909Z,8.7
2017-12-31T02:47:04.086Z,8.7
2017-12-31T02:48:18.535Z,8.7
2017-12-31T02:49:32.980Z,8.7
2017-12-31T02:50:47.427Z,8.7
2017-12-31T02:52:01.882Z,8.7
2017-12-31T02:53:16.333Z,8.7
2017-12-31T02:54:30.800Z,8.7
2017-12-31T02:55:45.245Z,8.7
2017-12-31T02:56:59.697Z,8.7
2017-12-31T02:58:14.153Z,8.7
2017-12-31T02:59:28.327Z,8.6
2017-12-31T03:00:43.336Z,8.6
2017-12-31T03:01:57.784Z,8.6
2017-12-31T03:03:12.257Z,8.6
2017-12-31T03:04:26.414Z,8.6
2017-12-31T03:05:40.596Z,8.6
2017-12-31T03:06:55.042Z,8.6
2017-12-31T03:08:09.492Z,8.6
2017-12-31T03:09:23.938Z,8.6
2017-12-31T03:10:38.385Z,8.6
2017-12-31T03:11:52.554Z,8.6
2017-12-31T03:13:07.009Z,8.6
2017-12-31T03:14:21.452Z,8.6
2017-12-31T03:15:35.902Z,8.6
2017-12-31T03:16:50.085Z,8.6
2017-12-31T03:18:04.535Z,8.6
2017-12-31T03:19:18.999Z,8.5
2017-12-31T03:20:33.446Z,8.5
2017-12-31T03:21:47.897Z,8.5
2017-12-31T03:23:02.345Z,8.5
2017-12-31T03:24:31.282Z,8.5
2017-12-31T03:25:45.733Z,8.5
2017-12-31T03:27:00.182Z,8.5
2017-12-31T03:28:14.625Z,8.5
2017-12-31T03:29:29.114Z,8.5
2017-12-31T03:30:43.571Z,8.5
2017-12-31T03:31:58.071Z,8.5
2017-12-31T03:33:12.519Z,8.4
2017-12-31T03:34:26.968Z,8.5
2017-12-31T03:35:41.414Z,8.5
2017-12-31T03:36:55.860Z,8.5
2017-12-31T03:38:10.306Z,8.5
2017-12-31T03:39:24.756Z,8.5
2017-12-31T03:40:39.212Z,8.5
2017-12-31T03:41:53.657Z,8.5
2017-12-31T03:43:07.824Z,8.5
2017-12-31T03:44:22.272Z,8.5
2017-12-31T03:45:36.470Z,8.5
2017-12-31T03:46:50.910Z,8.5
2017-12-31T03:48:05.088Z,8.5
2017-12-31T03:49:19.541Z,8.4
2017-12-31T03:50:33.986Z,8.4
2017-12-31T03:51:48.499Z,8.5
2017-12-31T03:53:02.955Z,8.5
2017-12-31T03:54:17.124Z,8.4
2017-12-31T03:55:31.574Z,8.4
2017-12-31T03:56:45.747Z,8.4
2017-12-31T03:58:00.209Z,8.4
2017-12-31T03:59:14.656Z,8.4
2017-12-31T04:00:28.859Z,8.5
2017-12-31T04:01:43.311Z,8.5
2017-12-31T04:02:57.764Z,8.5
2017-12-31T04:04:12.214Z,8.5
2017-12-31T04:05:26.387Z,8.5
2017-12-31T04:06:55.502Z,8.4
2017-12-31T04:08:09.950Z,8.4
2017-12-31T04:09:24.397Z,8.4
2017-12-31T04:10:38.842Z,8.4
2017-12-31T04:11:53.289Z,8.5
2017-12-31T04:13:07.768Z,8.4
2017-12-31T04:14:22.217Z,8.4
2017-12-31T04:15:36.666Z,8.4
2017-12-31T04:16:51.113Z,8.4
2017-12-31T04:18:05.558Z,8.4
2017-12-31T04:19:20.005Z,8.4
2017-12-31T04:20:34.451Z,8.4
2017-12-31T04:21:48.632Z,8.4
2017-12-31T04:23:02.821Z,8.5
2017-12-31T04:24:17.269Z,8.5
2017-12-31T04:25:31.716Z,8.5
2017-12-31T04:26:46.158Z,8.5
2017-12-31T04:28:00.607Z,8.5
2017-12-31T04:29:15.055Z,8.5
2017-12-31T04:30:29.220Z,8.5
2017-12-31T04:31:43.399Z,8.5
2017-12-31T04:32:57.848Z,8.5
2017-12-31T04:34:12.295Z,8.5
2017-12-31T04:35:26.746Z,8.5
2017-12-31T04:36:41.208Z,8.6
2017-12-31T04:37:55.693Z,8.5
2017-12-31T04:39:09.868Z,8.6
2017-12-31T04:40:24.318Z,8.6
2017-12-31T04:41:38.768Z,8.6
2017-12-31T04:42:53.233Z,8.6
2017-12-31T04:44:07.684Z,8.6
2017-12-31T04:45:22.174Z,8.6
2017-12-31T04:46:36.623Z,8.6
2017-12-31T04:47:50.796Z,8.6
2017-12-31T04:49:05.244Z,8.6
2017-12-31T04:50:20.827Z,8.8
2017-12-31T04:51:35.271Z,8.9
2017-12-31T04:52:49.719Z,9
2017-12-31T04:54:04.168Z,9.2
2017-12-31T04:55:18.612Z,9.3
2017-12-31T04:56:33.098Z,9.4
2017-12-31T04:57:47.543Z,9.4
2017-12-31T04:59:01.992Z,9.7
2017-12-31T05:00:16.172Z,9.8
2017-12-31T05:01:30.620Z,9.8
2017-12-31T05:02:45.068Z,9.8
2017-12-31T05:03:59.536Z,9.9
2017-12-31T05:05:13.985Z,10
2017-12-31T05:06:28.430Z,10.1
2017-12-31T05:07:42.877Z,10.1
2017-12-31T05:08:57.325Z,10.2
2017-12-31T05:10:11.778Z,10.2
2017-12-31T05:11:26.222Z,10.3
2017-12-31T05:12:40.395Z,10.3
2017-12-31T05:13:54.844Z,10.3
2017-12-31T05:15:09.019Z,10.4
2017-12-31T05:16:23.463Z,10.4
2017-12-31T05:17:37.916Z,10.4
2017-12-31T05:18:52.364Z,10.5
2017-12-31T05:20:07.023Z,10.4
2017-12-31T05:21:21.474Z,10.4
2017-12-31T05:22:35.920Z,10.4
2017-12-31T05:23:50.369Z,10.5
2017-12-31T05:25:04.818Z,10.5
2017-12-31T05:26:19.266Z,10.5
2017-12-31T05:27:33.715Z,10.5
2017-12-31T05:28:48.162Z,10.5
2017-12-31T05:30:02.342Z,10.5
2017-12-31T05:31:16.515Z,10.6
2017-12-31T05:32:30.965Z,10.6
2017-12-31T05:33:45.413Z,10.5
2017-12-31T05:34:59.872Z,10.6
2017-12-31T05:36:14.039Z,10.6
2017-12-31T05:37:28.495Z,10.6
2017-12-31T05:38:42.382Z,10.6
2017-12-31T05:39:56.832Z,10.6
2017-12-31T05:41:11.011Z,10.6
2017-12-31T05:42:25.464Z,10.7
2017-12-31T05:43:39.940Z,10.8
2017-12-31T05:44:54.117Z,10.7
2017-12-31T05:46:08.572Z,10.8
2017-12-31T05:47:23.025Z,10.8
2017-12-31T05:48:37.193Z,10.8
2017-12-31T05:49:51.645Z,10.8
2017-12-31T05:51:06.093Z,10.8
2017-12-31T05:52:20.541Z,10.8
2017-12-31T05:53:34.992Z,10.8
2017-12-31T05:54:49.171Z,10.8
2017-12-31T05:56:03.622Z,10.8
2017-12-31T05:57:18.065Z,10.8
2017-12-31T05:58:32.514Z,10.8
2017-12-31T05:59:46.960Z,10.8
2017-12-31T06:01:00.873Z,10.7
2017-12-31T06:02:15.317Z,10.8
2017-12-31T06:03:44.449Z,10.8
2017-12-31T06:04:58.916Z,10.8
2017-12-31T06:06:13.378Z,10.8
2017-12-31T06:07:27.831Z,10.8
2017-12-31T06:08:41.995Z,10.9
2017-12-31T06:09:56.442Z,10.9
2017-12-31T06:11:10.893Z,10.8
2017-12-31T06:12:25.345Z,10.8
2017-12-31T06:13:39.796Z,10.9
2017-12-31T06:14:54.246Z,10.9
2017-12-31T06:16:08.695Z,11
2017-12-31T06:17:23.081Z,11
2017-12-31T06:18:37.527Z,11
2017-12-31T06:19:51.977Z,11
2017-12-31T06:21:06.427Z,10.9
2017-12-31T06:22:20.874Z,10.9
2017-12-31T06:23:35.325Z,10.9
2017-12-31T06:24:49.791Z,11
2017-12-31T06:26:03.960Z,10.9
2017-12-31T06:27:18.423Z,11
2017-12-31T06:28:32.920Z,10.9
2017-12-31T06:29:47.356Z,10.9
2017-12-31T06:31:02.288Z,10.9
2017-12-31T06:32:16.741Z,10.9
2017-12-31T06:33:31.185Z,10.9
2017-12-31T06:34:45.633Z,10.9
2017-12-31T06:36:00.082Z,11
2017-12-31T06:37:14.534Z,11.1
2017-12-31T06:38:28.984Z,11
2017-12-31T06:39:43.434Z,11
2017-12-31T06:40:57.881Z,11
2017-12-31T06:42:12.335Z,11
2017-12-31T06:43:26.782Z,11
2017-12-31T06:44:41.243Z,11
2017-12-31T06:45:55.480Z,10.9
2017-12-31T06:47:09.654Z,11
2017-12-31T06:48:24.108Z,11
2017-12-31T06:49:38.287Z,11
2017-12-31T06:50:52.754Z,11
2017-12-31T06:52:07.201Z,10.9
2017-12-31T06:53:21.375Z,11
2017-12-31T06:54:35.830Z,11
2017-12-31T06:55:50.277Z,11
2017-12-31T06:57:04.730Z,11
2017-12-31T06:58:19.179Z,10.9
2017-12-31T06:59:33.348Z,10.9
2017-12-31T07:00:48.061Z,11
2017-12-31T07:02:02.509Z,11
2017-12-31T07:03:16.958Z,11
2017-12-31T07:04:31.406Z,11
2017-12-31T07:05:45.581Z,11
2017-12-31T07:07:00.039Z,11
2017-12-31T07:08:14.490Z,10.9
2017-12-31T07:09:28.944Z,10.9
2017-12-31T07:10:43.418Z,10.9
2017-12-31T07:11:57.867Z,10.9
2017-12-31T07:13:12.316Z,10.8
2017-12-31T07:14:26.764Z,10.8
2017-12-31T07:15:41.254Z,10.8
2017-12-31T07:16:55.705Z,10.9
2017-12-31T07:18:09.884Z,10.9
2017-12-31T07:19:24.321Z,10.9
2017-12-31T07:20:38.496Z,11
2017-12-31T07:21:52.944Z,11
2017-12-31T07:23:07.395Z,11
2017-12-31T07:24:21.846Z,11
2017-12-31T07:25:36.012Z,11
2017-12-31T07:26:50.462Z,11
2017-12-31T07:28:04.911Z,11
2017-12-31T07:29:19.374Z,11
2017-12-31T07:30:33.824Z,11
2017-12-31T07:31:48.274Z,11
2017-12-31T07:33:02.729Z,11
2017-12-31T07:34:17.181Z,11.1
2017-12-31T07:35:31.349Z,11
2017-12-31T07:36:45.801Z,11.1
2017-12-31T07:37:59.972Z,11.1
2017-12-31T07:39:14.151Z,11.1
2017-12-31T07:40:28.601Z,11.1
2017-12-31T07:41:43.263Z,11.1
2017-12-31T07:42:57.714Z,11.1
2017-12-31T07:44:11.881Z,11.1
2017-12-31T07:45:26.599Z,11.1
2017-12-31T07:46:42.001Z,11
2017-12-31T07:47:56.448Z,10.9
2017-12-31T07:49:10.898Z,10.9
2017-12-31T07:50:25.345Z,10.9
2017-12-31T07:51:39.813Z,10.9
2017-12-31T07:52:54.263Z,10.9
2017-12-31T07:54:08.716Z,10.9
2017-12-31T07:55:23.163Z,10.8
2017-12-31T07:56:37.611Z,10.9
2017-12-31T07:57:52.062Z,10.8
2017-12-31T07:59:06.517Z,10.9
2017-12-31T08:00:20.972Z,10.9
2017-12-31T08:01:35.421Z,11
2017-12-31T08:02:49.867Z,11
2017-12-31T08:04:04.327Z,11
2017-12-31T08:05:18.775Z,11
2017-12-31T08:06:33.246Z,11
2017-12-31T08:07:47.426Z,11
2017-12-31T08:09:01.876Z,11
2017-12-31T08:10:16.049Z,11
2017-12-31T08:11:30.499Z,11
2017-12-31T08:12:44.672Z,11
2017-12-31T08:13:59.122Z,11.1
2017-12-31T08:15:13.571Z,11.1
2017-12-31T08:16:27.740Z,11
2017-12-31T08:17:41.919Z,11.1
2017-12-31T08:18:56.369Z,11
2017-12-31T08:20:10.848Z,11
2017-12-31T08:21:25.295Z,11
2017-12-31T08:22:39.741Z,11
2017-12-31T08:23:53.916Z,11
2017-12-31T08:25:09.777Z,11
2017-12-31T08:26:24.224Z,11
2017-12-31T08:27:38.394Z,11.1
2017-12-31T08:28:52.569Z,11.1
2017-12-31T08:30:07.014Z,11
2017-12-31T08:31:21.464Z,11
2017-12-31T08:32:35.915Z,11.1
2017-12-31T08:33:50.365Z,11
2017-12-31T08:35:04.259Z,11
2017-12-31T08:36:18.717Z,11
2017-12-31T08:37:33.164Z,11.1
2017-12-31T08:38:47.619Z,11
2017-12-31T08:40:02.066Z,11
2017-12-31T08:41:16.517Z,11
2017-12-31T08:42:30.693Z,11
2017-12-31T08:43:45.140Z,11.1
2017-12-31T08:44:59.600Z,11.1
2017-12-31T08:46:14.053Z,11.1
2017-12-31T08:47:28.502Z,11
2017-12-31T08:48:42.679Z,11
2017-12-31T08:49:57.127Z,11
2017-12-31T08:51:11.594Z,11
2017-12-31T08:52:25.770Z,11.1
2017-12-31T08:53:39.940Z,11
2017-12-31T08:54:54.418Z,11
2017-12-31T08:56:08.869Z,11.1
2017-12-31T08:57:37.987Z,11.1
2017-12-31T08:58:51.884Z,11.1
2017-12-31T09:00:06.341Z,11
2017-12-31T09:01:20.813Z,11
2017-12-31T09:02:35.263Z,11
2017-12-31T09:04:04.099Z,11
2017-12-31T09:05:18.287Z,11
2017-12-31T09:06:32.729Z,11
2017-12-31T09:07:46.910Z,11
2017-12-31T09:09:01.354Z,11
2017-12-31T09:10:15.827Z,11
2017-12-31T09:11:30.275Z,10.9
2017-12-31T09:12:44.724Z,10.9
2017-12-31T09:13:59.248Z,11
2017-12-31T09:15:13.468Z,11
2017-12-31T09:16:27.915Z,11
2017-12-31T09:17:42.094Z,11
2017-12-31T09:18:56.544Z,11
2017-12-31T09:20:10.998Z,11
2017-12-31T09:21:25.447Z,11.1
2017-12-31T09:22:39.896Z,11.1
2017-12-31T09:23:54.347Z,11.1
2017-12-31T09:25:08.869Z,11.1
2017-12-31T09:26:23.318Z,11.1
2017-12-31T09:27:37.504Z,11.1
2017-12-31T09:28:51.954Z,11.1
2017-12-31T09:30:06.415Z,11.1
2017-12-31T09:31:20.593Z,11.2
2017-12-31T09:32:35.280Z,11.2
2017-12-31T09:33:49.728Z,11.2
2017-12-31T09:35:03.909Z,11.2
2017-12-31T09:36:18.358Z,11.2
2017-12-31T09:37:32.809Z,11.1
2017-12-31T09:38:47.260Z,11.1
2017-12-31T09:40:01.710Z,11.1
2017-12-31T09:41:15.885Z,11.2
2017-12-31T09:42:30.342Z,11.2
2017-12-31T09:43:44.796Z,11.2
2017-12-31T09:44:58.991Z,11.3
2017-12-31T09:46:13.461Z,11.2
2017-12-31T09:47:27.915Z,11.3
2017-12-31T09:48:42.365Z,11.3
2017-12-31T09:49:56.551Z,11.3
2017-12-31T09:51:11.007Z,11.3
2017-12-31T09:52:25.460Z,11.3
2017-12-31T09:53:39.905Z,11.3
2017-12-31T09:54:54.359Z,11.3
2017-12-31T09:56:08.814Z,11.3
2017-12-31T09:57:23.267Z,11.3
2017-12-31T09:58:37.714Z,11.3
2017-12-31T09:59:51.896Z,11.3
2017-12-31T10:01:06.075Z,11.3
2017-12-31T10:02:20.531Z,11.4
2017-12-31T10:03:34.978Z,11.4
2017-12-31T10:04:49.430Z,11.4
2017-12-31T10:06:03.884Z,11.4
2017-12-31T10:07:18.335Z,11.4
2017-12-31T10:08:32.512Z,11.5
2017-12-31T10:09:46.982Z,11.5
2017-12-31T10:11:01.434Z,11.5
2017-12-31T10:12:15.881Z,11.5
2017-12-31T10:13:30.056Z,11.5
2017-12-31T10:14:44.512Z,11.4
2017-12-31T10:15:59.934Z,11.4
2017-12-31T10:17:14.398Z,11.4
2017-12-31T10:18:28.570Z,11.4
2017-12-31T10:19:43.023Z,11.4
2017-12-31T10:20:57.477Z,11.4
2017-12-31T10:22:11.682Z,11.3
2017-12-31T10:23:25.865Z,11.4
2017-12-31T10:24:40.316Z,11.4
2017-12-31T10:25:54.767Z,11.3
2017-12-31T10:27:08.943Z,11.4
2017-12-31T10:28:23.119Z,11.4
2017-12-31T10:29:37.573Z,11.3
2017-12-31T10:30:52.042Z,11.3
2017-12-31T10:32:06.493Z,11.3
2017-12-31T10:33:20.947Z,11.3
2017-12-31T10:34:35.393Z,11.3
2017-12-31T10:35:49.847Z,11.3
2017-12-31T10:37:04.295Z,11.3
2017-12-31T10:38:18.745Z,11.3
2017-12-31T10:39:33.195Z,11.3
2017-12-31T10:40:47.369Z,11.4
2017-12-31T10:42:01.816Z,11.4
2017-12-31T10:43:16.273Z,11.4
2017-12-31T10:44:30.451Z,11.4
2017-12-31T10:45:44.971Z,11.4
2017-12-31T10:46:59.132Z,11.4
2017-12-31T10:48:13.586Z,11.5
2017-12-31T10:49:28.045Z,11.5
2017-12-31T10:50:42.233Z,11.5
2017-12-31T10:51:56.407Z,11.6
2017-12-31T10:53:10.857Z,11.6
2017-12-31T10:54:25.347Z,11.6
2017-12-31T10:55:39.799Z,11.7
2017-12-31T10:56:54.250Z,11.7
2017-12-31T10:58:08.702Z,11.7
2017-12-31T10:59:23.150Z,11.8
2017-12-31T11:00:37.349Z,11.8
2017-12-31T11:01:51.806Z,11.9
2017-12-31T11:03:05.979Z,11.9
2017-12-31T11:04:20.153Z,11.8
2017-12-31T11:05:34.331Z,11.9
2017-12-31T11:06:48.781Z,11.9
2017-12-31T11:08:03.500Z,11.9
2017-12-31T11:09:17.954Z,11.9
2017-12-31T11:10:32.405Z,11.9
2017-12-31T11:11:46.306Z,11.9
2017-12-31T11:13:00.761Z,11.9
2017-12-31T11:14:15.212Z,11.9
2017-12-31T11:15:29.400Z,11.9
2017-12-31T11:16:43.854Z,11.9
2017-12-31T11:17:58.303Z,11.9
2017-12-31T11:19:12.749Z,11.9
2017-12-31T11:20:26.930Z,11.9
2017-12-31T11:21:41.390Z,11.9
2017-12-31T11:22:57.048Z,11.9
2017-12-31T11:24:11.509Z,11.9
2017-12-31T11:25:25.971Z,11.9
2017-12-31T11:26:39.867Z,12
2017-12-31T11:27:54.041Z,12
2017-12-31T11:29:08.493Z,12
2017-12-31T11:30:22.960Z,12
2017-12-31T11:31:37.408Z,11.9
2017-12-31T11:32:51.866Z,11.9
2017-12-31T11:34:06.319Z,11.9
2017-12-31T11:35:20.772Z,11.9
2017-12-31T11:36:35.225Z,11.9
2017-12-31T11:37:49.692Z,11.9
2017-12-31T11:39:03.884Z,11.9
2017-12-31T11:40:18.381Z,11.8
2017-12-31T11:41:32.830Z,11.8
2017-12-31T11:42:47.282Z,11.8
2017-12-31T11:44:01.733Z,11.8
2017-12-31T11:45:15.914Z,11.8
2017-12-31T11:46:30.097Z,11.7
2017-12-31T11:47:44.541Z,11.7
2017-12-31T11:48:58.991Z,11.7
2017-12-31T11:50:13.445Z,11.7
2017-12-31T11:51:27.892Z,11.8
2017-12-31T11:52:42.340Z,11.8
2017-12-31T11:53:57.041Z,11.8
2017-12-31T11:55:11.489Z,11.8
2017-12-31T11:56:25.941Z,11.8
2017-12-31T11:57:40.395Z,11.8
2017-12-31T11:58:54.852Z,11.8
2017-12-31T12:00:09.310Z,11.8
2017-12-31T12:01:23.231Z,11.8
2017-12-31T12:02:37.410Z,11.8
2017-12-31T12:03:51.859Z,11.8
2017-12-31T12:05:06.314Z,11.8
2017-12-31T12:06:20.487Z,11.8
2017-12-31T12:07:34.937Z,11.8
2017-12-31T12:08:49.112Z,11.8
2017-12-31T12:10:03.293Z,11.8
2017-12-31T12:11:17.745Z,11.8
2017-12-31T12:12:32.191Z,11.7
2017-12-31T12:13:46.644Z,11.7
2017-12-31T12:15:01.117Z,11.7
2017-12-31T12:16:15.564Z,11.7
2017-12-31T12:17:30.016Z,11.7
2017-12-31T12:18:44.472Z,11.7
2017-12-31T12:19:58.921Z,11.7
2017-12-31T12:21:13.378Z,11.7
2017-12-31T12:22:27.828Z,11.7
2017-12-31T12:23:42.001Z,11.7
2017-12-31T12:24:56.452Z,11.7
2017-12-31T12:26:10.902Z,11.7
2017-12-31T12:27:25.356Z,11.7
2017-12-31T12:28:39.525Z,11.7
2017-12-31T12:29:53.980Z,11.7
2017-12-31T12:31:08.433Z,11.7
2017-12-31T12:32:22.884Z,11.7
2017-12-31T12:33:37.340Z,11.7
2017-12-31T12:34:51.793Z,11.7
2017-12-31T12:36:06.507Z,11.7
2017-12-31T12:37:21.441Z,11.7
2017-12-31T12:38:35.896Z,11.7
2017-12-31T12:39:50.069Z,11.7
2017-12-31T12:41:04.520Z,11.7
2017-12-31T12:42:20.188Z,11.7
2017-12-31T12:43:34.641Z,11.7
2017-12-31T12:44:49.092Z,11.7
2017-12-31T12:46:03.756Z,11.7
2017-12-31T12:47:17.936Z,11.7
2017-12-31T12:48:32.115Z,11.7
2017-12-31T12:49:46.559Z,11.7
2017-12-31T12:51:01.014Z,11.8
2017-12-31T12:52:15.467Z,11.8
2017-12-31T12:53:29.932Z,11.8
2017-12-31T12:54:44.388Z,11.8
2017-12-31T12:55:58.831Z,11.9
2017-12-31T12:57:13.283Z,11.8
2017-12-31T12:58:27.182Z,11.8
2017-12-31T12:59:41.630Z,11.8
2017-12-31T13:00:56.101Z,11.8
2017-12-31T13:02:10.546Z,11.8
2017-12-31T13:03:24.995Z,11.8
2017-12-31T13:04:39.444Z,11.8
2017-12-31T13:05:53.641Z,11.8
2017-12-31T13:07:08.093Z,11.8
2017-12-31T13:08:22.542Z,11.7
2017-12-31T13:09:36.994Z,11.7
2017-12-31T13:10:51.446Z,11.7
2017-12-31T13:12:05.902Z,11.7
2017-12-31T13:13:20.372Z,11.7
2017-12-31T13:14:34.828Z,11.7
2017-12-31T13:15:49.276Z,11.7
2017-12-31T13:17:03.453Z,11.6
2017-12-31T13:18:17.907Z,11.6
2017-12-31T13:19:32.355Z,11.6
2017-12-31T13:20:46.809Z,11.6
2017-12-31T13:22:01.275Z,11.6
2017-12-31T13:23:15.726Z,11.6
2017-12-31T13:24:30.179Z,11.6
2017-12-31T13:25:44.352Z,11.5
2017-12-31T13:26:58.533Z,11.5
2017-12-31T13:28:12.983Z,11.5
2017-12-31T13:29:27.158Z,11.5
2017-12-31T13:30:41.335Z,11.5
2017-12-31T13:31:55.789Z,11.5
2017-12-31T13:33:10.238Z,11.5
2017-12-31T13:34:24.686Z,11.5
2017-12-31T13:35:38.858Z,11.5
2017-12-31T13:36:53.318Z,11.5
2017-12-31T13:38:07.772Z,11.5
2017-12-31T13:39:21.944Z,11.5
2017-12-31T13:40:36.396Z,11.5
2017-12-31T13:41:50.853Z,11.5
2017-12-31T13:43:05.303Z,11.5
2017-12-31T13:44:19.769Z,11.5
2017-12-31T13:45:33.946Z,11.5
2017-12-31T13:46:48.123Z,11.5
2017-12-31T13:48:02.599Z,11.5
2017-12-31T13:49:16.774Z,11.5
2017-12-31T13:50:31.263Z,11.5
2017-12-31T13:51:45.163Z,11.5
2017-12-31T13:52:59.620Z,11.5
2017-12-31T13:54:14.068Z,11.5
2017-12-31T13:55:28.520Z,11.5
2017-12-31T13:56:46.048Z,11.5
2017-12-31T13:58:00.494Z,11.6
2017-12-31T13:59:14.665Z,11.6
2017-12-31T14:00:29.113Z,11.6
2017-12-31T14:01:43.566Z,11.6
2017-12-31T14:02:58.171Z,11.5
2017-12-31T14:04:13.578Z,11.5
2017-12-31T14:05:27.771Z,11.5
2017-12-31T14:06:42.245Z,11.5
2017-12-31T14:07:56.420Z,11.5
2017-12-31T14:09:10.591Z,11.5
2017-12-31T14:10:25.718Z,11.5
2017-12-31T14:11:40.374Z,11.5
2017-12-31T14:12:54.825Z,11.5
2017-12-31T14:14:09.292Z,11.5
2017-12-31T14:15:23.778Z,11.5
2017-12-31T14:16:38.225Z,11.5
2017-12-31T14:17:52.674Z,11.5
2017-12-31T14:19:07.126Z,11.5
2017-12-31T14:20:21.302Z,11.5
2017-12-31T14:21:35.764Z,11.5
2017-12-31T14:22:50.218Z,11.5
2017-12-31T14:24:04.667Z,11.5
2017-12-31T14:25:19.113Z,11.5
2017-12-31T14:26:33.568Z,11.4
2017-12-31T14:27:49.156Z,11.5
2017-12-31T14:29:03.385Z,11.4
2017-12-31T14:30:17.553Z,11.5
2017-12-31T14:31:31.470Z,11.4
2017-12-31T14:32:46.112Z,11.5
2017-12-31T14:34:00.567Z,11.5
2017-12-31T14:35:15.047Z,11.5
2017-12-31T14:36:29.499Z,11.5
2017-12-31T14:37:43.947Z,11.4
2017-12-31T14:38:58.407Z,11.4
2017-12-31T14:40:12.849Z,11.4
2017-12-31T14:41:28.275Z,11.4
2017-12-31T14:42:42.732Z,11.4
2017-12-31T14:43:57.183Z,11.4
2017-12-31T14:45:11.632Z,11.4
2017-12-31T14:46:26.123Z,11.4
2017-12-31T14:47:40.586Z,11.4
2017-12-31T14:48:55.039Z,11.4
2017-12-31T14:50:09.511Z,11.4
2017-12-31T14:51:23.418Z,11.3
2017-12-31T14:52:37.881Z,11.3
2017-12-31T14:53:52.077Z,11.4
2017-12-31T14:55:06.528Z,11.3
2017-12-31T14:56:20.711Z,11.3
2017-12-31T14:57:35.204Z,11.3
2017-12-31T14:58:49.406Z,11.3
2017-12-31T15:00:03.861Z,11.3
2017-12-31T15:01:18.315Z,11.3
2017-12-31T15:02:32.491Z,11.3
2017-12-31T15:03:47.007Z,11.3
2017-12-31T15:05:01.480Z,11.2
2017-12-31T15:06:15.928Z,11.3
2017-12-31T15:07:30.376Z,11.2
2017-12-31T15:08:44.828Z,11.2
2017-12-31T15:10:13.951Z,11.2
2017-12-31T15:11:28.401Z,11.2
2017-12-31T15:12:42.861Z,11.2
2017-12-31T15:13:57.318Z,11.2
2017-12-31T15:15:11.771Z,11.1
2017-12-31T15:16:26.224Z,11.1
2017-12-31T15:17:40.690Z,11.1
2017-12-31T15:18:55.141Z,11.1
2017-12-31T15:20:09.338Z,11
2017-12-31T15:21:23.839Z,11
2017-12-31T15:22:38.020Z,11
2017-12-31T15:23:52.464Z,10.9
2017-12-31T15:25:06.918Z,10.9
2017-12-31T15:26:21.091Z,10.9
2017-12-31T15:27:35.544Z,10.9
2017-12-31T15:28:49.994Z,10.8
2017-12-31T15:30:04.479Z,10.8
2017-12-31T15:31:18.658Z,10.8
2017-12-31T15:32:33.135Z,10.7
2017-12-31T15:33:47.579Z,10.7
2017-12-31T15:35:02.032Z,10.7
2017-12-31T15:36:16.491Z,10.6
2017-12-31T15:37:30.942Z,10.5
2017-12-31T15:38:45.423Z,10.5
2017-12-31T15:39:59.877Z,10.5
2017-12-31T15:41:14.324Z,10.5
2017-12-31T15:42:28.780Z,10.4
2017-12-31T15:43:42.962Z,10.4
2017-12-31T15:44:57.445Z,10.3
2017-12-31T15:46:12.163Z,10.3
2017-12-31T15:47:26.420Z,10.3
2017-12-31T15:48:40.856Z,10.2
2017-12-31T15:49:55.307Z,10.2
2017-12-31T15:51:09.482Z,10.2
2017-12-31T15:52:25.198Z,10.2
2017-12-31T15:53:39.361Z,10.1
2017-12-31T15:54:53.811Z,10.1
2017-12-31T15:56:08.275Z,10
2017-12-31T15:57:22.726Z,10
2017-12-31T15:58:37.172Z,10
2017-12-31T15:59:51.624Z,9.9
2017-12-31T16:01:06.071Z,9.9
2017-12-31T16:02:20.252Z,9.9
2017-12-31T16:03:34.704Z,9.9
2017-12-31T16:04:49.161Z,9.9
2017-12-31T16:06:03.625Z,9.9
2017-12-31T16:07:17.807Z,9.9
2017-12-31T16:08:32.256Z,9.9
2017-12-31T16:09:46.708Z,9.9
2017-12-31T16:11:01.157Z,9.9
2017-12-31T16:12:15.625Z,9.9
2017-12-31T16:13:30.076Z,9.9
2017-12-31T16:14:44.256Z,9.9
2017-12-31T16:15:58.710Z,9.9
2017-12-31T16:17:13.161Z,10
2017-12-31T16:18:27.609Z,9.9
2017-12-31T16:19:42.059Z,10
2017-12-31T16:20:56.511Z,10
2017-12-31T16:22:10.687Z,9.9
2017-12-31T16:23:25.134Z,9.9
2017-12-31T16:24:39.583Z,9.9
2017-12-31T16:25:53.753Z,9.9
2017-12-31T16:27:07.921Z,9.9
2017-12-31T16:28:22.370Z,9.9
2017-12-31T16:29:36.822Z,9.8
2017-12-31T16:30:51.268Z,9.8
2017-12-31T16:32:05.716Z,9.9
2017-12-31T16:33:20.168Z,9.9
2017-12-31T16:34:34.339Z,9.9
2017-12-31T16:35:48.786Z,10
2017-12-31T16:37:03.235Z,9.9
2017-12-31T16:38:17.409Z,9.9
2017-12-31T16:39:31.858Z,9.9
2017-12-31T16:40:46.309Z,9.8
2017-12-31T16:42:00.754Z,9.9
2017-12-31T16:43:14.928Z,9.9
2017-12-31T16:44:29.377Z,9.9
2017-12-31T16:45:43.831Z,9.8
2017-12-31T16:46:58.003Z,9.8
2017-12-31T16:48:12.457Z,9.9
2017-12-31T16:49:26.943Z,9.8
2017-12-31T16:50:41.130Z,9.8
2017-12-31T16:51:55.580Z,9.8
2017-12-31T16:53:10.031Z,9.8
2017-12-31T16:54:24.475Z,9.7